Latest Observation

42 Stations

15 Minute Data | America/Los_Angeles
as of 9/1/26 9:07 PM PDT
Station Date Time Temp (°F) RH (%) Dew Pt (°F) Wind Spd (mph) Wind Dir (°) Wind Gust (mph) Latest Rain (In) Daily Rain (In) Daily Min Temp (°F) Daily Max Temp (°F) Daily Max Wind (mph)
Elk Mt. Farm 8/13/26 1500 85.6   7.4 - - - - - - - 51.4   1.1 85.6   7.4 -
Upper Lake 9/1/26 2100 57.1   4.4 85   16 52.7   1.5 0.7 S | 182 3.1   9.2 0.00 0.00 55.8   10.4 69.5   17.2 18.8   0.9
Scotts Valley 9/1/26 2100 56.8   4.5 84   18 51.9   2.4 1.0 NNW | 342 4.7   0.2 0.00 0.00 47.0   5.8 74.3   11.1 14.4   0.9
Scotts Valley-South (Bella Vista) 9/1/26 2100 56.8   4.0 79   17 50.2   2.6 0.6 NE | 54 2.5   10.9 0.00 0.00 49.2   3.2 71.4   12.0 14.3   1.8
Kelseyville 9/1/26 2100 57.4   3.8 81   12 51.5   0.5 3.1 SW | 234 6.1   1.1 0.00 0.00 47.7   1.4 71.8   11.8 18.6   2.4
Kelseyville Remote 9/1/26 2100 58.8   2.5 70   8 48.9   1.1 - - - 0.00 0.00 48.2   0.6 72.6   11.7 -
Kelseyville (Clark Drive) 9/1/26 2100 58.5   3.1 - - - - - 0.00 0.00 45.2   0.5 73.4   13.5 -
Kelsey Bench (Oaklea) 9/1/26 2100 57.3   2.8 72   6 48.4   0.5 4.6 WSW | 241 8.2   2.5 0.00 0.00 49.1   2.0 71.4   10.9 16.6   0.1
Smith Lane (Kelseyville-South) 9/1/26 2045 58.2   2.9 74   7 50.1   0.1 3.6 SW | 228 7.1   4.5 0.00 0.00 44.2   0.2 72.2   11.8 15.5   1.1
Bell Hill-West 9/1/26 2100 58.0   3.1 84   10 53.3   0.2 0.9 WNW | 298 3.8   3.4 0.00 0.00 48.0   0.1 71.3   11.1 18.5   0.3
High Valley Ridgeline (Brassfield) 9/1/26 2100 55.0   5.4 77   6 47.8   2.8 9.8 W | 265 15.8   2.5 0.00 0.00 51.9   7.8 69.1   12.1 23.9   2.9
Wight Way (Adobe Creek) 9/1/26 2100 56.9   3.6 77   11 49.7   0.5 0.8 NW | 310 2.9   1.0 0.00 0.00 46.2   1.8 78.0   10.2 15.7   1.6
Ridgeline Top (Brassfield) 9/1/26 2100 54.8   5.2 - - - - - - - 51.6   7.9 71.7   11.5 -
Ridgeline Low (Brassfield) 9/1/26 2100 56.8   5.1 - - - - - - - 53.4   4.6 69.5   12.8 -
Long Valley (Shannon) 6/29/26 1400 84.9   4.6 25   1 44.9   3.2 2.9 ENE | 75 10.2   0.4 0.00 0.00 46.4   0.4 86.9   6.5 13.7   1.8
High Valley Winery 9/1/26 2100 58.0   5.2 67   5 47.3   2.8 6.6 W | 271 15.8   2.6 0.00 0.00 53.3   8.9 71.2   12.8 19.1   0.9
Round Mtn Rd. 9/1/26 1030 58.8   17.7 - - - - - - - 48.7   2.1 59.1   17.4 -
Circle O 9/1/26 2100 56.8   5.5 - - - - - - - 49.9   2.0 71.7   13.6 -
Robertsbridge Vineyards 9/1/26 2100 57.3   4.1 69   3 47.3   2.6 - - - - - 44.8   1.9 73.5   11.0 -
Urgency Vineyard 9/1/26 2100 57.0   4.0 64   3 44.8   5.0 3.7 SW | 233 8.3   2.5 0.00 0.00 51.1   7.3 73.5   11.6 14.0   2.0
Red Hills (Beckstoffer) 9/1/26 2100 57.4   3.9 66   5 46.1   5.5 - - - 0.00 0.00 51.7   11.6 72.8   13.2 -
Winters (Shannon) 9/1/26 2100 55.5   5.0 68   0 45.1   4.8 3.5 W | 265 8.7   0.7 0.00 0.00 51.1   11.7 69.8   14.3 15.7   0.1
Secret Pond (Shannon) 9/1/26 2100 54.9   4.8 65   3 43.4   5.7 5.3 NW | 325 9.4   0.5 0.00 0.00 48.4   5.4 67.3   15.1 19.7   7.2
Rolling Knolls (Shannon) 9/1/26 2100 58.1   6.0 61   0 44.7   5.6 2.5 WSW | 240 5.8   6.4 0.00 0.00 53.6   10.2 71.8   12.2 14.6   2.3
Lower Lake 9/1/26 2100 57.6   6.2 64   0 45.6   6.0 3.5 W | 278 7.2   1.8 0.00 0.00 53.2   1.9 71.5   11.8 16.4   1.2
Adamson Ranch 9/1/26 2100 59.3   3.3 62   4 46.1   4.9 0.5 NW | 321 3.9   3.1 0.00 0.00 44.1   1.6 73.4   11.1 17.3   1.5
Middletown (Diamond D) 9/1/26 2100 60.7   1.7 68   1 50.2   1.9 6.3 N | 355 16.7   5.4 0.00 0.00 41.5   2.6 72.7   9.2 20.9   2.7
Middletown-West (Domaine Helena) 9/1/26 2100 59.2   0.6 69   4 49.2   1.9 10.4 SW | 222 19.3   6.3 0.00 0.00 41.1   0.5 73.3   10.0 21.1   3.6
Middletown-South 9/1/26 2100 59.7   0.4 67   4 48.9   2.1 4.9 SW | 231 15.0   3.0 0.00 0.00 45.1   0.2 72.0   10.5 20.8   1.2
Jim Davis (Langtry) 9/1/26 2100 60.4   2.9 66   2 49.0   1.9 6.2 WSW | 250 10.4   7.4 0.00 0.00 47.6   4.1 73.6   7.0 21.0   1.7
Napa Valley Basin 9/1/26 2100 61.8   1.8 63   2 49.1   2.4 2.1 ESE | 110 4.7   1.1 0.00 0.00 42.3   1.0 74.9   6.9 17.9   0.1
Lower Bohn 9/1/26 2100 61.0   0.6 62   5 48.0   2.5 2.6 ENE | 66 7.9   4.7 0.00 0.00 38.6   4.1 75.3   6.6 21.0   0.9
Upper Bohn-North 9/1/26 2100 60.3   1.3 64   2 48.2   2.0 1.6 E | 99 3.2   2.1 0.00 0.00 46.3   2.2 75.8   6.8 14.3   0.3
Snell Peak Blk#9 9/1/26 2100 59.5   1.6 65   2 47.9   2.3 0.7 SE | 132 3.0   2.8 0.00 0.00 49.6   2.0 73.7   7.0 16.7   2.3
Coyote Lake West 9/1/26 2100 60.3   2.4 67   0 49.3   2.2 0.8 ENE | 77 2.2   3.9 0.00 0.00 46.4   1.4 74.0   6.3 17.5   0.1
Coyote Lake Northeast 9/1/26 2100 59.7   2.7 69   2 49.6   1.9 - - - - - 48.5   3.6 75.5   6.5 -
Coyote Lake East 9/1/26 2100 57.4   6.7 74   10 49.2   2.5 - - - - - 44.7   0.1 75.3   6.7 -
Morgan Valley 9/1/26 2100 56.5   3.3 73   1 48.0   2.9 3.4 WSW | 256 7.1   1.7 0.00 0.00 50.7   9.1 68.5   8.3 21.9   5.5
Mine Pit North 9/1/26 2100 57.9   3.4 68   1 47.6   2.7 6.7 S | 172 13.4   4.5 - - 48.5   6.4 73.0   8.2 25.7   6.7
Mine Pit South 9/1/26 2100 56.7   2.7 68   1 46.2   2.1 6.1 WSW | 238 11.9   3.0 0.00 0.00 49.6   4.0 72.3   8.0 26.1   7.4
Cow Mountain 9/1/26 2100 49.0   0.6 - - 8.8 ENE | 78 16.0   2.2 0.00 0.07 46.2   1.6 58.2   14.7 32.2   4.6
Ukiah-SE (Ruddick) 9/1/26 2100 59.3   0.9 85   18 54.8   5.6 3.0 WNW | 291 5.6   6.9 0.00 0.00 58.9   11.8 71.7   10.0 14.2   4.3
Max     61.8 85 54.8 10.4 - 19.3 0.00 0.07 58.9 78.0 32.2
Avg     57.8 70 48.5 3.8 - 8.3 0.00 - - - -
Min     49.0 61 43.4 0.5 - 2.2 0.00 0.00 38.6 58.2 14.0